Time;durP1;ratioP1;P1;durP2;ratioP2;P2;SDS_P1;SDS_P2;PMS_P1;PMS_P2;Temp;Humidity;BMP_temperature;BMP_pressure;BME280_temperature;BME280_humidity;BME280_pressure;Samples;Min_cycle;Max_cycle;Signal;HPM_P1;HPM_P2
2022/01/19 00:01:24;;;;;;;;;20.75;20.50;;;;;6.78;66.19;102903.91;5049261;28;49867;-74
2022/01/19 00:03:49;;;;;;;;;28.25;25.25;;;;;6.75;66.69;102921.03;5051219;28;49677;-75
2022/01/19 00:06:15;;;;;;;;;16.75;16.75;;;;;6.95;67.14;102962.53;5044883;28;52582;-74
2022/01/19 00:08:41;;;;;;;;;26.50;23.00;;;;;6.69;66.84;102923.25;5052801;28;50004;-75
2022/01/19 00:11:06;;;;;;;;;25.50;22.50;;;;;6.74;66.66;102894.03;5044685;28;50007;-74
2022/01/19 00:13:32;;;;;;;;;16.25;16.25;;;;;7.05;66.11;102965.00;5052554;28;49826;-75
2022/01/19 00:15:57;;;;;;;;;23.50;22.00;;;;;6.57;66.81;102872.00;5053691;28;49751;-75
2022/01/19 00:18:24;;;;;;;;;24.50;23.00;;;;;7.03;66.80;102942.16;5053851;28;49823;-74
2022/01/19 00:20:51;;;;;;;;;29.25;24.75;;;;;6.84;66.86;102904.31;5057679;28;49807;-75
2022/01/19 00:23:19;;;;;;;;;23.00;19.75;;;;;6.81;66.91;102874.50;5036231;28;49789;-75
2022/01/19 00:25:49;;;;;;;;;23.50;20.00;;;;;6.80;66.99;102852.69;5056948;28;50908;-75
2022/01/19 00:28:14;;;;;;;;;23.75;20.00;;;;;6.98;66.75;102873.06;5037091;28;50149;-75
2022/01/19 00:30:41;;;;;;;;;22.25;21.00;;;;;6.79;67.12;102842.16;5076161;27;49801;-76
2022/01/19 00:33:07;;;;;;;;;22.25;22.25;;;;;7.06;66.77;102871.88;5078836;27;49899;-75
2022/01/19 00:35:35;;;;;;;;;25.25;23.75;;;;;7.03;66.87;102842.91;5084142;27;51859;-75
2022/01/19 00:38:01;;;;;;;;;22.00;21.75;;;;;7.02;67.35;102828.97;5071801;27;49913;-74
2022/01/19 00:40:26;;;;;;;;;28.25;23.25;;;;;6.96;66.06;102832.88;5072581;27;49774;-76
2022/01/19 00:42:52;;;;;;;;;29.00;25.25;;;;;7.02;66.79;102854.16;5072887;27;49735;-75
2022/01/19 00:45:18;;;;;;;;;29.75;26.00;;;;;6.93;66.83;102849.22;5072486;27;50909;-75
2022/01/19 00:47:43;;;;;;;;;28.50;27.00;;;;;6.95;66.96;102847.66;5082845;27;49605;-77
2022/01/19 00:50:12;;;;;;;;;28.00;26.25;;;;;7.25;66.75;102894.94;5071322;27;49815;-76
2022/01/19 00:52:37;;;;;;;;;26.00;23.75;;;;;7.08;66.39;102872.88;5085120;27;49747;-75
2022/01/19 00:55:08;;;;;;;;;24.75;20.50;;;;;7.17;66.52;102892.69;5086792;27;51746;-74
2022/01/19 00:57:35;;;;;;;;;22.00;22.00;;;;;7.14;66.44;102909.84;5078781;27;49819;-73
2022/01/19 01:00:00;;;;;;;;;25.00;21.75;;;;;7.03;66.60;102897.75;5072519;27;49941;-74
2022/01/19 01:02:26;;;;;;;;;28.25;24.25;;;;;7.03;66.43;102884.69;5079920;27;49805;-75
2022/01/19 01:04:51;;;;;;;;;29.25;23.75;;;;;6.93;66.51;102857.06;5077536;27;50423;-76
2022/01/19 01:07:16;;;;;;;;;23.25;19.75;;;;;6.99;65.88;102859.19;5073958;27;49889;-75
2022/01/19 01:09:42;;;;;;;;;30.25;27.00;;;;;6.89;65.90;102845.50;5072103;27;49762;-76
2022/01/19 01:12:13;;;;;;;;;26.25;25.75;;;;;6.94;66.18;102848.41;5072478;27;49921;-75
2022/01/19 01:20:11;;;;;;;;;26.00;24.00;;;;;6.62;66.20;102785.28;5078934;27;49772;-74
2022/01/19 01:22:38;;;;;;;;;22.25;20.75;;;;;7.04;66.78;102855.16;5088031;27;49801;-75
2022/01/19 01:25:04;;;;;;;;;28.00;22.25;;;;;6.88;66.22;102799.31;5073873;27;51993;-75
2022/01/19 01:27:30;;;;;;;;;24.50;21.25;;;;;6.91;66.18;102803.81;5084319;27;49708;-74
2022/01/19 01:29:55;;;;;;;;;25.25;21.25;;;;;6.83;66.90;102802.41;5062689;27;50347;-74
2022/01/19 01:32:20;;;;;;;;;25.75;24.75;;;;;6.97;66.49;102835.59;5051964;28;50012;-75
2022/01/19 01:34:46;;;;;;;;;31.50;23.75;;;;;6.98;66.75;102834.78;5040629;28;51585;-76
2022/01/19 01:37:11;;;;;;;;;23.75;23.75;;;;;6.93;66.47;102838.78;5051747;28;50074;-76
2022/01/19 01:39:37;;;;;;;;;23.25;21.00;;;;;7.03;66.38;102853.38;5051417;28;49796;-76
2022/01/19 01:42:12;;;;;;;;;26.50;26.50;;;;;6.87;66.42;102815.78;5039542;28;49833;-75
2022/01/19 01:44:41;;;;;;;;;22.25;19.25;;;;;6.97;66.66;102819.03;5043599;28;52588;-74
2022/01/19 01:47:07;;;;;;;;;30.25;25.00;;;;;7.07;65.95;102852.78;5044931;28;49718;-74
2022/01/19 01:53:26;;;;;;;;;23.00;21.50;;;;;7.00;66.19;102840.13;5051325;28;50013;-74
2022/01/19 01:55:24;;;;;;;;;26.50;20.00;;;;;6.94;65.78;102817.09;5052763;28;49828;-74
2022/01/19 01:57:50;;;;;;;;;27.50;25.25;;;;;6.82;66.54;102796.28;5057909;28;49717;-74
2022/01/19 02:00:20;;;;;;;;;28.75;25.50;;;;;6.99;65.74;102817.41;5051557;28;49965;-74
2022/01/19 02:02:47;;;;;;;;;20.50;19.75;;;;;6.75;65.47;102780.97;5040862;28;50110;-74
2022/01/19 02:05:17;;;;;;;;;32.50;24.25;;;;;6.78;66.03;102777.69;5051237;28;51098;-74
2022/01/19 02:10:31;;;;;;;;;25.25;22.75;;;;;6.88;66.64;102794.09;5051256;28;49824;-74
2022/01/19 02:15:57;;;;;;;;;29.50;28.00;;;;;6.95;65.68;102773.59;5050825;28;49769;-74
2022/01/19 02:23:54;;;;;;;;;30.00;29.00;;;;;7.00;65.92;102794.00;5064591;28;49963;-74
2022/01/19 02:29:22;;;;;;;;;23.00;21.25;;;;;6.78;65.71;102742.06;5028670;27;50082;-75
2022/01/19 02:42:29;;;;;;;;;26.25;26.00;;;;;6.82;65.91;102720.56;5050443;28;49744;-77
2022/01/19 02:49:51;;;;;;;;;24.50;22.75;;;;;6.63;65.77;102706.19;5050629;28;49755;-75
2022/01/19 02:52:18;;;;;;;;;20.00;19.25;;;;;6.61;65.95;102698.25;5042872;28;50229;-75
2022/01/19 02:54:44;;;;;;;;;14.75;14.25;;;;;6.80;65.76;102736.94;5050311;28;49904;-76
2022/01/19 02:57:12;;;;;;;;;23.75;23.75;;;;;6.63;65.83;102690.50;5056870;28;50000;-76
2022/01/19 03:10:36;;;;;;;;;28.75;25.00;;;;;6.69;65.40;102685.72;5055494;28;50080;-76
2022/01/19 03:13:02;;;;;;;;;24.25;21.75;;;;;6.84;65.75;102725.88;5049983;28;49911;-76
2022/01/19 03:15:28;;;;;;;;;27.75;24.00;;;;;6.77;65.61;102695.88;5042802;28;50062;-76
2022/01/19 03:17:58;;;;;;;;;21.25;19.25;;;;;6.72;66.00;102680.69;5049900;28;50531;-75
2022/01/19 03:20:24;;;;;;;;;23.00;22.00;;;;;6.98;65.86;102708.53;5041210;28;49677;-76
2022/01/19 03:23:00;;;;;;;;;28.50;21.25;;;;;6.94;65.67;102683.91;5050200;28;49958;-74
2022/01/19 03:25:26;;;;;;;;;23.75;22.75;;;;;7.07;65.31;102697.00;5050008;28;50252;-76
2022/01/19 03:27:51;;;;;;;;;24.25;23.25;;;;;6.82;65.41;102654.41;5039720;28;51860;-75
2022/01/19 03:30:19;;;;;;;;;20.25;18.75;;;;;6.99;64.73;102690.38;5056080;27;49804;-75
2022/01/19 03:32:45;;;;;;;;;23.50;19.00;;;;;7.10;65.49;102701.50;5077347;27;49179;-76
2022/01/19 03:35:11;;;;;;;;;6.00;3.00;;;;;6.97;64.96;102680.63;5072666;27;49913;-75
2022/01/19 03:37:38;;;;;;;;;28.75;26.00;;;;;7.11;65.36;102700.69;5075153;27;52302;-75
2022/01/19 03:40:05;;;;;;;;;27.75;24.00;;;;;6.94;65.37;102681.31;5069894;27;49809;-75
2022/01/19 03:42:31;;;;;;;;;25.00;21.25;;;;;6.96;65.57;102676.22;5069399;27;49739;-75
2022/01/19 03:44:56;;;;;;;;;21.00;20.00;;;;;6.92;65.26;102671.56;5070117;27;49584;-77
2022/01/19 03:47:22;;;;;;;;;27.75;26.50;;;;;6.86;65.47;102659.94;5069969;27;50552;-75
2022/01/19 03:49:47;;;;;;;;;26.25;22.75;;;;;7.11;65.52;102699.00;5073202;27;49696;-75
2022/01/19 03:52:13;;;;;;;;;27.75;24.00;;;;;7.13;65.47;102680.81;5079086;27;49881;-74
2022/01/19 03:54:41;;;;;;;;;23.75;23.00;;;;;7.03;64.55;102668.84;5069697;27;49893;-74
2022/01/19 03:57:08;;;;;;;;;23.25;21.00;;;;;7.14;64.99;102675.72;5076351;27;50768;-74
2022/01/19 03:59:33;;;;;;;;;30.50;24.50;;;;;7.17;65.67;102685.44;5071531;27;50036;-75
2022/01/19 04:01:59;;;;;;;;;32.75;29.00;;;;;7.16;65.36;102674.09;5069409;27;50123;-75
2022/01/19 04:06:59;;;;;;;;;25.75;24.25;;;;;6.83;64.78;102615.34;5069630;27;49979;-74
2022/01/19 04:09:26;;;;;;;;;29.50;26.25;;;;;7.10;64.64;102651.88;5069569;27;49972;-74
2022/01/19 04:11:51;;;;;;;;;29.00;25.75;;;;;6.87;65.20;102626.91;5069550;27;49919;-74
2022/01/19 04:14:23;;;;;;;;;23.75;22.00;;;;;7.22;64.67;102683.13;5069470;27;49988;-74
2022/01/19 04:16:54;;;;;;;;;29.00;25.00;;;;;7.21;64.69;102669.16;5085217;27;52857;-74
2022/01/19 04:21:45;;;;;;;;;25.75;22.25;;;;;7.05;64.26;102643.78;5069403;27;50238;-74
2022/01/19 04:24:11;;;;;;;;;23.00;21.75;;;;;6.96;64.57;102626.59;5079857;27;50077;-74
2022/01/19 04:26:36;;;;;;;;;24.75;20.50;;;;;6.88;65.58;102616.56;5068959;27;49766;-73
2022/01/19 04:29:02;;;;;;;;;24.00;23.50;;;;;7.12;65.37;102655.50;5076700;27;49862;-73
2022/01/19 04:31:28;;;;;;;;;31.25;27.50;;;;;7.08;65.32;102651.78;5048978;28;50287;-73
2022/01/19 04:33:53;;;;;;;;;35.00;25.75;;;;;7.23;65.62;102669.25;5035816;28;49688;-73
2022/01/19 04:36:31;;;;;;;;;35.00;27.00;;;;;7.26;65.59;102657.31;5048151;28;51607;-73
2022/01/19 04:47:24;;;;;;;;;32.25;28.25;;;;;7.19;64.99;102631.59;5048496;28;51890;-73
2022/01/19 05:03:25;;;;;;;;;37.25;33.00;;;;;7.39;65.62;102657.28;5052272;28;49911;-73
2022/01/19 05:06:05;;;;;;;;;42.75;37.25;;;;;7.28;65.21;102647.84;5059139;28;49984;-74
2022/01/19 05:13:58;;;;;;;;;30.25;26.25;;;;;7.31;65.08;102649.75;5052045;28;49694;-73
2022/01/19 05:16:23;;;;;;;;;29.75;29.75;;;;;7.22;65.47;102629.16;5051482;28;49859;-73
2022/01/19 05:18:50;;;;;;;;;30.25;27.50;;;;;7.50;65.50;102680.56;5056972;28;51014;-74
2022/01/19 05:21:16;;;;;;;;;30.75;27.75;;;;;7.47;65.15;102670.84;5054170;28;50024;-74
2022/01/19 05:23:42;;;;;;;;;30.25;27.25;;;;;7.23;65.31;102630.97;5043933;28;50276;-73
2022/01/19 05:26:07;;;;;;;;;27.75;23.50;;;;;7.17;65.60;102635.81;5053990;28;49851;-74
2022/01/19 05:28:33;;;;;;;;;26.50;24.50;;;;;7.45;65.80;102672.47;5050999;28;50186;-74
2022/01/19 05:30:58;;;;;;;;;32.50;28.25;;;;;7.41;65.57;102670.44;5051377;28;49696;-73
2022/01/19 05:33:24;;;;;;;;;24.75;24.25;;;;;7.12;65.44;102613.72;5051468;28;49662;-73
2022/01/19 05:35:49;;;;;;;;;24.75;24.75;;;;;7.16;65.86;102621.84;5040275;28;50061;-73
2022/01/19 05:38:15;;;;;;;;;38.00;35.50;;;;;7.08;65.87;102606.50;5041753;28;51720;-73
2022/01/19 05:40:40;;;;;;;;;38.50;36.50;;;;;7.12;65.68;102639.81;5051226;28;49623;-73
2022/01/19 05:43:06;;;;;;;;;38.50;33.50;;;;;7.02;65.77;102614.81;5047347;28;50482;-74
2022/01/19 05:45:31;;;;;;;;;37.25;36.25;;;;;6.54;66.17;102513.38;5051486;28;49891;-74
2022/01/19 05:47:57;;;;;;;;;35.75;34.25;;;;;7.21;66.77;102639.53;5051155;28;49957;-74
2022/01/19 05:50:24;;;;;;;;;34.50;31.25;;;;;7.10;65.96;102638.81;5051491;28;49958;-73
2022/01/19 05:52:49;;;;;;;;;39.75;35.00;;;;;6.97;66.28;102611.03;5051425;28;49716;-74
2022/01/19 05:55:15;;;;;;;;;40.50;37.50;;;;;7.12;66.63;102634.59;5051647;28;49954;-73
2022/01/19 05:57:40;;;;;;;;;37.00;34.75;;;;;7.09;66.64;102618.75;5050520;28;50912;-73
2022/01/19 06:00:06;;;;;;;;;44.50;35.00;;;;;7.21;66.42;102642.13;5040058;28;49746;-73
2022/01/19 06:02:31;;;;;;;;;39.50;34.00;;;;;7.14;66.65;102628.69;5044392;28;49869;-73
2022/01/19 06:04:57;;;;;;;;;35.25;34.75;;;;;7.34;66.90;102652.59;5034100;28;50002;-73
2022/01/19 06:07:28;;;;;;;;;36.25;33.75;;;;;7.15;66.78;102633.13;5050847;28;50443;-73
2022/01/19 06:10:05;;;;;;;;;34.50;30.75;;;;;7.26;66.92;102649.47;5039666;28;50049;-74
2022/01/19 06:12:30;;;;;;;;;45.25;39.00;;;;;7.23;67.09;102640.50;5053951;28;49987;-73
2022/01/19 06:14:55;;;;;;;;;38.75;34.50;;;;;7.17;67.08;102625.38;5043660;28;50049;-73
2022/01/19 06:17:21;;;;;;;;;37.75;35.25;;;;;7.13;66.46;102613.81;5046280;28;51661;-73
2022/01/19 06:19:48;;;;;;;;;39.75;38.25;;;;;7.13;66.89;102619.03;5050781;28;49803;-73
2022/01/19 06:22:14;;;;;;;;;51.25;39.50;;;;;7.32;66.94;102651.56;5041519;28;49619;-73
2022/01/19 06:24:40;;;;;;;;;40.75;37.25;;;;;7.19;66.32;102636.81;5050811;28;50108;-73
2022/01/19 06:27:05;;;;;;;;;38.25;37.25;;;;;7.16;67.01;102614.03;5050592;28;49825;-75
2022/01/19 06:29:30;;;;;;;;;44.50;39.00;;;;;7.29;66.70;102630.47;5041350;28;49666;-74
2022/01/19 06:31:56;;;;;;;;;41.75;36.25;;;;;7.29;67.15;102635.69;5050829;28;49853;-74
2022/01/19 06:34:21;;;;;;;;;42.00;37.50;;;;;7.19;66.77;102628.97;5050926;28;49980;-74
2022/01/19 06:36:51;;;;;;;;;40.00;36.50;;;;;7.26;66.75;102651.19;5052542;28;50910;-75
2022/01/19 06:39:16;;;;;;;;;48.50;38.00;;;;;7.21;66.73;102640.41;5040886;28;49824;-75
2022/01/19 06:41:42;;;;;;;;;49.25;40.75;;;;;7.16;66.72;102642.75;5056244;28;49718;-74
2022/01/19 06:44:08;;;;;;;;;37.75;36.50;;;;;7.26;67.14;102646.84;5052927;28;49811;-74
2022/01/19 06:46:34;;;;;;;;;42.75;34.75;;;;;7.14;66.86;102623.47;5050205;28;50609;-75
2022/01/19 06:48:59;;;;;;;;;47.75;38.00;;;;;7.00;66.93;102595.56;5050492;28;49817;-73
2022/01/19 06:51:25;;;;;;;;;44.00;40.00;;;;;6.48;66.45;102500.84;5050342;28;49984;-75
2022/01/19 06:53:52;;;;;;;;;43.50;38.25;;;;;7.08;67.05;102611.72;5050359;28;49569;-74
2022/01/19 06:56:17;;;;;;;;;42.00;38.25;;;;;7.13;67.10;102626.84;5050321;28;49864;-74
2022/01/19 06:58:43;;;;;;;;;42.25;39.50;;;;;6.82;66.93;102571.75;5048362;28;49789;-74
2022/01/19 07:01:12;;;;;;;;;48.75;42.00;;;;;7.24;67.28;102639.69;5053525;28;49699;-76
2022/01/19 07:03:37;;;;;;;;;43.50;39.00;;;;;7.07;67.17;102608.22;5050361;28;50035;-78
2022/01/19 07:06:02;;;;;;;;;47.50;39.75;;;;;7.26;67.31;102651.19;5053687;28;50633;-75
2022/01/19 07:08:28;;;;;;;;;33.50;30.75;;;;;7.27;67.94;102642.53;5050120;28;49786;-79
2022/01/19 07:10:54;;;;;;;;;44.25;37.50;;;;;7.02;67.72;102609.59;5042932;28;49859;-77
2022/01/19 07:13:21;;;;;;;;;44.25;37.50;;;;;6.96;67.14;102598.78;5049408;28;49776;-76
2022/01/19 07:15:47;;;;;;;;;46.50;38.75;;;;;7.12;66.77;102621.53;5046963;28;51483;-78
2022/01/19 07:18:12;;;;;;;;;45.50;37.25;;;;;6.97;66.83;102592.75;5052701;28;49713;-76
2022/01/19 07:20:38;;;;;;;;;49.75;40.75;;;;;7.04;68.24;102594.94;5056647;28;49712;-76
2022/01/19 07:23:03;;;;;;;;;46.00;38.00;;;;;6.97;67.40;102587.53;5050921;28;49894;-76
2022/01/19 07:25:29;;;;;;;;;48.50;42.50;;;;;7.07;67.97;102617.75;5053793;28;51179;-78
2022/01/19 07:27:55;;;;;;;;;48.00;39.50;;;;;7.09;67.63;102613.53;5049964;28;49804;-75
2022/01/19 07:30:21;;;;;;;;;44.00;38.00;;;;;6.99;68.17;102603.28;5056299;28;49860;-76
2022/01/19 07:32:48;;;;;;;;;44.75;39.00;;;;;7.11;68.28;102611.91;5049677;28;49619;-75
2022/01/19 07:35:16;;;;;;;;;46.00;37.75;;;;;7.25;67.51;102652.88;5049314;28;50718;-75
2022/01/19 07:37:42;;;;;;;;;38.75;37.25;;;;;7.18;67.65;102632.41;5053997;28;49658;-75
2022/01/19 07:40:08;;;;;;;;;47.25;40.75;;;;;7.13;67.91;102624.25;5050081;28;50020;-75
2022/01/19 07:42:34;;;;;;;;;46.00;40.25;;;;;7.05;67.98;102603.69;5056048;28;49737;-76
2022/01/19 07:44:59;;;;;;;;;43.25;37.25;;;;;7.26;67.61;102643.34;5042177;28;52572;-76
2022/01/19 07:47:27;;;;;;;;;31.50;28.25;;;;;6.99;68.44;102587.63;5055773;28;49841;-75
2022/01/19 07:49:53;;;;;;;;;49.75;41.00;;;;;7.03;67.77;102605.28;5050006;28;49975;-75
2022/01/19 07:52:18;;;;;;;;;55.25;45.75;;;;;7.30;68.13;102648.84;5049864;28;49932;-75
2022/01/19 07:54:44;;;;;;;;;50.25;41.25;;;;;7.20;68.06;102640.31;5035282;28;50880;-75
2022/01/19 07:57:09;;;;;;;;;46.00;37.50;;;;;7.33;68.32;102656.88;5039397;28;49709;-76
2022/01/19 07:59:34;;;;;;;;;32.50;30.25;;;;;7.08;68.08;102611.72;5048811;28;49757;-73
2022/01/19 08:02:00;;;;;;;;;46.25;40.50;;;;;6.74;68.52;102540.75;5040097;28;49966;-72
2022/01/19 08:04:25;;;;;;;;;51.25;42.50;;;;;7.26;68.15;102623.34;5053592;28;50642;-73
2022/01/19 08:06:54;;;;;;;;;42.75;38.75;;;;;7.10;68.38;102597.94;5055067;28;49766;-72
2022/01/19 08:09:25;;;;;;;;;50.75;42.25;;;;;7.39;68.07;102646.81;5044523;28;49662;-72
2022/01/19 08:11:50;;;;;;;;;44.25;40.00;;;;;7.24;68.19;102621.41;5059445;28;49829;-71
2022/01/19 08:14:16;;;;;;;;;40.50;37.25;;;;;7.33;67.88;102643.81;5055188;28;50113;-70
2022/01/19 08:16:41;;;;;;;;;46.25;40.00;;;;;6.99;67.93;102587.63;5059958;28;49899;-69
2022/01/19 08:19:07;;;;;;;;;51.75;42.00;;;;;7.04;67.83;102591.41;5048287;28;49800;-70
2022/01/19 08:21:32;;;;;;;;;46.25;39.25;;;;;7.18;68.13;102616.72;5048387;28;49836;-70
2022/01/19 08:23:58;;;;;;;;;47.50;38.50;;;;;6.87;68.33;102572.97;5053193;28;51214;-71
2022/01/19 08:26:23;;;;;;;;;42.50;37.25;;;;;7.42;68.50;102669.63;5040566;28;49875;-70
2022/01/19 08:28:48;;;;;;;;;43.25;34.75;;;;;7.19;67.94;102618.53;5042930;28;49864;-72
2022/01/19 08:31:14;;;;;;;;;57.00;41.25;;;;;7.14;68.69;102612.09;5059970;27;49713;-72
2022/01/19 08:33:39;;;;;;;;;48.50;39.75;;;;;7.38;68.22;102660.69;5053897;28;52231;-72
2022/01/19 08:36:06;;;;;;;;;34.75;30.50;;;;;7.34;68.22;102642.13;5054359;28;49667;-70
2022/01/19 08:38:32;;;;;;;;;40.75;37.00;;;;;7.53;68.14;102672.91;5053427;28;49850;-70
2022/01/19 08:41:00;;;;;;;;;40.00;37.25;;;;;6.98;67.82;102583.22;5053581;28;49933;-70
2022/01/19 08:43:26;;;;;;;;;43.25;34.00;;;;;7.18;67.80;102621.94;5052779;28;50779;-71
2022/01/19 08:45:52;;;;;;;;;42.50;35.50;;;;;7.27;67.82;102630.38;5053081;28;49717;-71
2022/01/19 08:48:19;;;;;;;;;49.50;39.50;;;;;7.52;68.28;102689.41;5035305;28;49990;-70
2022/01/19 08:50:45;;;;;;;;;50.25;38.25;;;;;7.53;68.88;102678.13;5053557;28;49784;-70
2022/01/19 08:53:10;;;;;;;;;38.75;36.25;;;;;7.20;69.01;102635.09;5053104;28;49829;-70
2022/01/19 08:55:36;;;;;;;;;47.00;39.50;;;;;7.49;68.57;102676.16;5053264;28;49567;-71
2022/01/19 08:58:02;;;;;;;;;40.50;32.50;;;;;7.16;67.64;102615.72;5053029;28;49762;-71
2022/01/19 09:00:28;;;;;;;;;42.00;31.25;;;;;7.57;68.40;102685.38;5053323;28;49713;-70
2022/01/19 09:02:53;;;;;;;;;41.00;37.25;;;;;7.60;68.62;102689.09;5052661;28;50575;-71
2022/01/19 09:05:19;;;;;;;;;38.50;36.00;;;;;7.52;68.10;102676.34;5053423;28;49860;-71
2022/01/19 09:07:44;;;;;;;;;37.75;34.75;;;;;7.59;68.29;102681.16;5053160;28;49772;-73
2022/01/19 09:10:11;;;;;;;;;44.75;36.75;;;;;7.52;68.08;102668.50;5053330;28;49857;-74
2022/01/19 09:12:37;;;;;;;;;42.25;33.25;;;;;7.66;68.50;102701.66;5047893;28;50069;-71
2022/01/19 09:15:07;;;;;;;;;50.50;38.00;;;;;7.29;68.04;102631.38;5056737;28;49678;-73
2022/01/19 09:17:33;;;;;;;;;44.50;36.50;;;;;7.32;67.78;102636.78;5052634;28;49737;-71
2022/01/19 09:19:59;;;;;;;;;41.00;36.75;;;;;7.62;67.78;102695.31;5052890;28;50015;-71
2022/01/19 09:22:25;;;;;;;;;41.00;34.75;;;;;7.32;67.94;102649.84;5052370;28;49785;-71
2022/01/19 09:24:50;;;;;;;;;40.50;36.75;;;;;7.36;68.00;102651.88;5052764;28;49621;-71
2022/01/19 09:27:18;;;;;;;;;50.75;40.00;;;;;7.44;67.54;102663.72;5052448;28;49772;-69
2022/01/19 09:29:45;;;;;;;;;47.75;35.75;;;;;7.69;67.72;102710.59;5052708;28;49853;-75
2022/01/19 09:32:12;;;;;;;;;38.50;34.75;;;;;7.61;68.59;102706.56;5052356;28;50897;-72
2022/01/19 09:34:42;;;;;;;;;42.25;37.25;;;;;7.31;67.79;102642.81;5034463;28;49844;-72
2022/01/19 09:37:07;;;;;;;;;35.50;32.25;;;;;7.73;68.16;102717.84;5051731;28;49723;-73
2022/01/19 09:39:33;;;;;;;;;46.25;38.75;;;;;7.61;68.34;102690.91;5052592;28;49964;-69
2022/01/19 09:41:58;;;;;;;;;43.50;39.00;;;;;7.77;67.84;102718.03;5044706;28;51660;-70
2022/01/19 09:44:25;;;;;;;;;47.00;38.25;;;;;7.80;67.82;102715.59;5052396;28;49678;-68
2022/01/19 09:46:52;;;;;;;;;42.25;37.00;;;;;7.71;68.21;102689.75;5052429;28;49865;-70
2022/01/19 09:49:19;;;;;;;;;46.00;35.25;;;;;7.86;67.82;102709.03;5052646;28;50071;-68
2022/01/19 09:51:48;;;;;;;;;41.50;39.00;;;;;7.88;68.79;102709.13;5065366;28;50795;-67
2022/01/19 09:54:19;;;;;;;;;41.00;37.50;;;;;7.92;68.31;102703.31;5052089;28;49824;-68
2022/01/19 09:56:45;;;;;;;;;46.75;38.75;;;;;7.98;68.00;102709.81;5065696;28;49707;-68
2022/01/19 09:59:13;;;;;;;;;48.50;40.50;;;;;7.91;67.49;102691.94;5071586;28;49606;-67
2022/01/19 10:01:49;;;;;;;;;42.00;39.25;;;;;8.03;67.41;102711.00;5071320;28;51120;-66
2022/01/19 10:04:19;;;;;;;;;45.50;40.75;;;;;7.84;68.05;102649.63;5071473;28;49834;-66
2022/01/19 10:06:45;;;;;;;;;41.25;38.50;;;;;8.17;67.53;102692.63;5040284;28;49960;-67
2022/01/19 10:09:10;;;;;;;;;44.00;38.50;;;;;8.12;67.87;102660.06;5063630;28;49755;-65
2022/01/19 10:17:03;;;;;;;;;50.75;40.25;;;;;8.47;66.39;102701.47;5051994;28;49717;-67
2022/01/19 10:19:42;;;;;;;;;46.25;39.75;;;;;8.45;67.37;102701.38;5051885;28;50110;-68
2022/01/19 10:22:12;;;;;;;;;38.25;34.00;;;;;8.51;66.50;102707.00;5051733;28;50866;-70
2022/01/19 10:24:50;;;;;;;;;46.00;39.50;;;;;8.54;66.07;102699.31;5065100;28;49934;-73
2022/01/19 10:27:42;;;;;;;;;42.25;37.25;;;;;8.58;66.20;102706.53;5071021;28;49655;-74
2022/01/19 10:30:08;;;;;;;;;39.50;36.00;;;;;8.62;65.83;102701.50;5069417;27;49999;-72
2022/01/19 10:32:45;;;;;;;;;43.00;39.25;;;;;8.52;65.41;102685.25;5091094;27;50848;-71
2022/01/19 10:35:33;;;;;;;;;39.50;38.00;;;;;8.65;66.23;102702.56;5092440;27;50148;-69
2022/01/19 10:38:24;;;;;;;;;51.25;42.75;;;;;8.56;65.83;102696.78;5091819;27;50049;-73
2022/01/19 10:40:55;;;;;;;;;54.25;42.50;;;;;8.60;65.62;102704.94;5091625;27;49623;-73
2022/01/19 10:43:39;;;;;;;;;46.50;39.00;;;;;8.61;65.45;102708.44;5089707;27;49781;-74
2022/01/19 10:46:34;;;;;;;;;45.00;40.00;;;;;8.52;65.87;102694.81;5089984;27;49758;-74
2022/01/19 10:49:05;;;;;;;;;47.00;39.75;;;;;8.28;65.64;102644.47;5065825;27;49911;-77
2022/01/19 10:51:37;;;;;;;;;55.25;43.50;;;;;8.48;65.72;102674.47;5076639;27;50025;-75
2022/01/19 10:54:11;;;;;;;;;55.50;43.25;;;;;8.39;65.28;102661.75;5089705;27;50840;-77
2022/01/19 10:56:37;;;;;;;;;56.00;45.00;;;;;8.54;65.61;102690.56;5085005;27;49742;-73
2022/01/19 10:59:07;;;;;;;;;50.50;42.25;;;;;8.54;65.74;102685.31;5071366;27;49788;-74
2022/01/19 11:01:33;;;;;;;;;54.50;44.50;;;;;8.56;66.14;102678.47;5071829;27;49573;-73
2022/01/19 11:04:23;;;;;;;;;49.75;39.50;;;;;8.56;66.40;102679.34;5071658;27;49641;-75
2022/01/19 11:06:54;;;;;;;;;58.25;47.75;;;;;8.18;65.84;102600.25;5086795;27;49568;-78
2022/01/19 11:09:24;;;;;;;;;60.25;47.50;;;;;8.54;66.89;102669.63;5091128;27;50104;-75
2022/01/19 11:11:51;;;;;;;;;56.75;41.75;;;;;8.56;66.28;102668.88;5090852;27;49772;-76
2022/01/19 11:14:17;;;;;;;;;61.00;49.25;;;;;8.32;66.03;102610.75;5090724;27;50239;-76
2022/01/19 11:16:43;;;;;;;;;56.50;46.50;;;;;8.49;66.48;102645.81;5082514;27;49692;-77
2022/01/19 11:19:12;;;;;;;;;62.25;48.75;;;;;8.43;66.42;102621.88;5074630;27;50319;-76
2022/01/19 11:21:51;;;;;;;;;62.75;50.50;;;;;8.53;66.66;102631.16;5089446;27;49952;-77
2022/01/19 11:24:30;;;;;;;;;69.00;52.75;;;;;8.35;65.90;102601.28;5090535;27;50808;-76
2022/01/19 11:26:56;;;;;;;;;67.25;52.75;;;;;8.41;66.26;102601.66;5089170;27;49892;-78
2022/01/19 11:29:23;;;;;;;;;68.50;52.00;;;;;8.42;66.97;102604.38;5086490;27;50289;-75
2022/01/19 11:31:52;;;;;;;;;64.25;52.00;;;;;8.56;66.56;102640.09;5034334;28;49852;-75
2022/01/19 11:34:43;;;;;;;;;62.25;50.00;;;;;8.67;66.27;102650.28;5057096;28;50825;-75
2022/01/19 11:37:09;;;;;;;;;69.50;50.50;;;;;8.53;65.85;102626.84;5046904;28;50187;-76
2022/01/19 11:39:35;;;;;;;;;56.75;46.75;;;;;8.48;66.22;102611.66;5070215;28;49766;-77
2022/01/19 11:42:03;;;;;;;;;65.75;47.75;;;;;8.52;65.86;102627.66;5038184;28;49903;-79
2022/01/19 11:44:28;;;;;;;;;60.25;49.50;;;;;8.68;66.67;102641.63;5051276;28;49773;-75
2022/01/19 11:46:56;;;;;;;;;62.75;50.00;;;;;8.63;66.85;102624.75;5032579;28;49737;-77
2022/01/19 11:49:44;;;;;;;;;62.00;49.75;;;;;8.74;66.02;102621.03;5050761;28;49973;-74
2022/01/19 11:52:09;;;;;;;;;67.00;51.00;;;;;8.60;66.14;102583.59;5032657;28;49941;-79
2022/01/19 11:54:35;;;;;;;;;62.25;52.75;;;;;8.67;66.02;102583.13;5057356;28;50254;-76
2022/01/19 11:57:02;;;;;;;;;55.25;42.25;;;;;8.88;66.54;102604.41;5056640;28;49973;-82
2022/01/19 11:59:44;;;;;;;;;64.75;50.75;;;;;8.78;65.33;102586.34;5051523;28;49804;-82
